Time;durP1;ratioP1;P1;durP2;ratioP2;P2;SDS_P1;SDS_P2;PMS_P1;PMS_P2;Temp;Humidity;BMP_temperature;BMP_pressure;BME280_temperature;BME280_humidity;BME280_pressure;Samples;Min_cycle;Max_cycle;Signal;HPM_P1;HPM_P2
2022/05/19 00:01:04;;;;;;;32.60;19.52;;;;;;;18.87;78.91;101626.78;5028727;28;20126;-89
2022/05/19 00:03:30;;;;;;;35.08;20.50;;;;;;;18.85;78.92;101620.06;5029340;28;20116;-89
2022/05/19 00:05:55;;;;;;;34.30;19.83;;;;;;;18.89;79.25;101618.38;5028672;28;20171;-88
2022/05/19 00:08:21;;;;;;;31.77;20.53;;;;;;;18.85;79.39;101618.13;5028116;28;20035;-89
2022/05/19 00:10:47;;;;;;;34.93;20.90;;;;;;;18.83;80.11;101612.19;5028426;28;20299;-89
2022/05/19 00:13:13;;;;;;;36.67;21.27;;;;;;;18.79;80.15;101611.19;5030118;28;20021;-89
2022/05/19 00:15:38;;;;;;;36.95;20.95;;;;;;;18.74;80.20;101603.13;5029230;28;20072;-90
2022/05/19 00:18:03;;;;;;;37.20;21.60;;;;;;;18.71;80.58;101606.41;5027096;28;20029;-89
2022/05/19 00:20:29;;;;;;;37.47;20.90;;;;;;;18.70;80.65;101602.09;5027720;28;20029;-89
2022/05/19 00:22:55;;;;;;;35.17;22.90;;;;;;;18.60;81.52;101598.44;5028661;28;20029;-89
2022/05/19 00:25:21;;;;;;;32.80;21.23;;;;;;;18.57;81.22;101598.19;5030132;28;20037;-89
2022/05/19 00:27:51;;;;;;;31.30;19.92;;;;;;;18.56;81.17;101594.69;5028739;28;20473;-89
2022/05/19 00:30:17;;;;;;;42.80;23.00;;;;;;;18.50;82.33;101593.13;5027796;28;20083;-89
2022/05/19 00:32:42;;;;;;;32.83;20.40;;;;;;;18.49;81.24;101579.88;5032289;28;20029;-89
2022/05/19 00:35:08;;;;;;;36.77;22.93;;;;;;;18.49;82.43;101590.72;5033187;28;20079;-89
2022/05/19 00:37:33;;;;;;;35.97;22.25;;;;;;;18.42;82.12;101591.09;5031857;28;20037;-89
2022/05/19 00:39:59;;;;;;;33.23;22.17;;;;;;;18.36;82.43;101573.25;5032105;28;20025;-89
2022/05/19 00:45:09;;;;;;;37.70;22.85;;;;;;;18.33;83.13;101576.56;5033184;28;20088;-88
2022/05/19 00:47:46;;;;;;;35.65;22.85;;;;;;;18.31;82.66;101579.56;5030953;28;20026;-88
2022/05/19 00:50:25;;;;;;;36.63;22.48;;;;;;;18.32;82.45;101570.34;5029954;28;20128;-89
2022/05/19 00:52:55;;;;;;;38.55;23.13;;;;;;;18.23;83.37;101570.19;5033247;28;20068;-89
2022/05/19 00:55:27;;;;;;;47.00;22.48;;;;;;;18.17;83.40;101574.84;5033207;28;20025;-89
2022/05/19 00:58:01;;;;;;;37.05;22.13;;;;;;;18.13;83.66;101560.28;5032373;28;20037;-88
2022/05/19 01:00:27;;;;;;;36.27;22.23;;;;;;;18.16;83.45;101558.88;5027076;28;20476;-88
2022/05/19 01:02:59;;;;;;;35.33;21.40;;;;;;;18.15;83.36;101563.50;5032074;28;20299;-89
2022/05/19 01:05:31;;;;;;;36.15;21.70;;;;;;;18.06;83.50;101557.09;5032210;28;20108;-88
2022/05/19 01:08:04;;;;;;;40.38;21.75;;;;;;;18.00;83.46;101547.41;5017146;28;20054;-88
2022/05/19 01:10:29;;;;;;;35.72;23.23;;;;;;;17.95;84.50;101552.88;5035353;28;20036;-88
2022/05/19 01:12:55;;;;;;;34.43;22.33;;;;;;;17.95;84.81;101550.97;5049916;28;20045;-87
2022/05/19 01:15:21;;;;;;;37.20;23.50;;;;;;;17.86;85.26;101531.81;5051770;28;20021;-87
2022/05/19 01:17:48;;;;;;;35.08;22.17;;;;;;;17.87;84.92;101538.06;5050301;28;20048;-88
2022/05/19 01:20:20;;;;;;;39.22;23.85;;;;;;;17.76;86.13;101541.97;5042880;28;20032;-88
2022/05/19 01:23:03;;;;;;;37.40;22.73;;;;;;;17.70;85.58;101528.50;5041476;28;20048;-87
2022/05/19 01:25:57;;;;;;;40.53;23.48;;;;;;;17.67;84.79;101522.84;5038978;28;20369;-88
2022/05/19 01:28:22;;;;;;;40.47;24.52;;;;;;;17.62;87.54;101531.06;5033581;28;20041;-91
2022/05/19 01:30:49;;;;;;;38.57;24.00;;;;;;;17.58;87.36;101525.38;5014922;28;20022;-88
2022/05/19 01:33:14;;;;;;;41.70;23.75;;;;;;;17.54;87.58;101518.91;5013411;28;20076;-87
2022/05/19 01:35:39;;;;;;;36.17;22.83;;;;;;;17.54;87.07;101514.31;5016575;28;20053;-87
2022/05/19 01:38:16;;;;;;;40.70;24.80;;;;;;;17.55;87.67;101518.66;5031319;28;20914;-87
2022/05/19 01:40:53;;;;;;;40.75;25.38;;;;;;;17.56;86.55;101514.03;5031969;28;20266;-87
2022/05/19 01:43:42;;;;;;;38.92;24.30;;;;;;;17.57;86.89;101502.09;5029723;28;20041;-87
2022/05/19 01:46:34;;;;;;;39.53;24.67;;;;;;;17.47;88.17;101508.44;5030506;28;20028;-88
2022/05/19 01:49:12;;;;;;;37.47;24.08;;;;;;;17.43;88.50;101499.28;5032411;28;20385;-88
2022/05/19 01:51:47;;;;;;;43.03;26.05;;;;;;;17.38;89.04;101499.34;5031328;28;20037;-87
2022/05/19 01:54:13;;;;;;;42.45;25.75;;;;;;;17.44;89.28;101509.00;5031583;28;20095;-87
2022/05/19 01:56:45;;;;;;;44.97;26.67;;;;;;;17.41;90.20;101498.75;5032516;28;20524;-87
2022/05/19 01:59:40;;;;;;;42.27;26.23;;;;;;;17.40;89.13;101506.06;5028238;28;20296;-87
2022/05/19 02:02:27;;;;;;;43.38;25.20;;;;;;;17.37;91.05;101503.94;5032099;28;20037;-88
2022/05/19 02:05:09;;;;;;;38.63;25.52;;;;;;;17.35;90.77;101500.69;5031116;28;20489;-88
2022/05/19 02:07:36;;;;;;;38.38;25.10;;;;;;;17.43;90.74;101502.00;5032793;28;20025;-88
2022/05/19 02:10:06;;;;;;;41.13;27.27;;;;;;;17.44;91.15;101498.16;5031920;28;20362;-87
2022/05/19 02:12:33;;;;;;;45.65;25.85;;;;;;;17.41;90.91;101504.97;5031813;28;20041;-88
2022/05/19 02:15:04;;;;;;;42.08;25.85;;;;;;;17.40;91.27;101489.81;5031594;28;20036;-87
2022/05/19 02:17:32;;;;;;;41.33;26.23;;;;;;;17.39;91.81;101487.41;5031594;28;20144;-88
2022/05/19 02:20:07;;;;;;;41.53;25.27;;;;;;;17.41;91.68;101491.44;5030081;28;20120;-88
2022/05/19 02:22:36;;;;;;;40.33;24.13;;;;;;;17.45;91.42;101491.66;5032481;28;20483;-88
2022/05/19 02:25:24;;;;;;;37.10;24.20;;;;;;;17.45;91.39;101498.97;5036899;28;20280;-86
2022/05/19 02:28:05;;;;;;;36.00;23.35;;;;;;;17.46;91.08;101492.47;5032869;28;20026;-87
2022/05/19 02:30:34;;;;;;;37.50;24.00;;;;;;;17.48;91.62;101495.69;5025562;28;20029;-88
2022/05/19 02:32:59;;;;;;;37.85;22.88;;;;;;;17.41;91.50;101494.13;5040381;28;20087;-89
2022/05/19 02:35:25;;;;;;;35.73;23.67;;;;;;;17.48;91.34;101501.91;5042545;28;20061;-88
2022/05/19 02:37:51;;;;;;;33.25;22.58;;;;;;;17.41;91.56;101493.34;5040253;28;20089;-87
2022/05/19 02:40:19;;;;;;;34.63;20.98;;;;;;;17.50;90.54;101493.50;5043218;28;20045;-87
2022/05/19 02:42:45;;;;;;;36.63;23.27;;;;;;;17.53;91.23;101501.88;5033839;28;20029;-87
2022/05/19 02:45:12;;;;;;;33.63;21.98;;;;;;;17.49;90.47;101500.03;5036379;28;20384;-88
2022/05/19 02:47:37;;;;;;;31.93;21.73;;;;;;;17.62;90.15;101510.16;5035942;28;20468;-88
2022/05/19 02:50:04;;;;;;;31.57;19.33;;;;;;;17.69;89.23;101512.53;5027750;28;20295;-87
2022/05/19 02:52:29;;;;;;;36.47;20.03;;;;;;;17.71;88.93;101519.25;5019105;28;20051;-88
2022/05/19 02:54:55;;;;;;;39.97;20.17;;;;;;;17.68;89.26;101511.72;5033419;28;20300;-88
2022/05/19 02:57:20;;;;;;;27.77;18.63;;;;;;;17.79;89.06;101525.16;5033870;28;20161;-88
2022/05/19 02:59:45;;;;;;;24.43;18.20;;;;;;;17.85;88.57;101518.56;5032090;28;20029;-87
2022/05/19 03:02:12;;;;;;;27.30;17.90;;;;;;;17.86;87.80;101517.47;5028595;28;20030;-87
2022/05/19 03:04:37;;;;;;;27.60;18.00;;;;;;;17.95;87.43;101529.28;5032029;28;20032;-87
2022/05/19 03:07:03;;;;;;;28.93;17.53;;;;;;;17.94;87.16;101521.44;5031817;28;20409;-88
2022/05/19 03:09:29;;;;;;;24.30;16.15;;;;;;;18.04;87.02;101542.22;5030829;28;20033;-87
2022/05/19 03:11:55;;;;;;;26.53;17.50;;;;;;;18.05;87.30;101636.84;5029368;28;20033;-88
2022/05/19 03:14:20;;;;;;;32.90;20.10;;;;;;;18.09;87.75;101640.59;5028884;28;20044;-88
2022/05/19 03:16:45;;;;;;;35.33;22.90;;;;;;;18.12;87.85;101640.00;5011176;28;20029;-88
2022/05/19 03:19:12;;;;;;;30.70;19.93;;;;;;;18.23;86.60;101624.44;5020518;28;20108;-88
2022/05/19 03:21:37;;;;;;;29.20;19.35;;;;;;;18.23;86.32;101661.56;5029454;28;20109;-89
2022/05/19 03:24:03;;;;;;;30.15;18.48;;;;;;;18.36;84.67;101668.22;5030503;28;20455;-88
2022/05/19 03:26:28;;;;;;;26.43;17.50;;;;;;;18.42;84.57;101661.63;5030599;28;20072;-87
2022/05/19 03:28:54;;;;;;;27.47;17.57;;;;;;;18.46;84.20;101660.75;5030120;28;20028;-88
2022/05/19 03:31:19;;;;;;;30.83;18.05;;;;;;;18.45;84.05;101663.75;5029054;28;20121;-88
2022/05/19 03:33:44;;;;;;;26.40;17.87;;;;;;;18.49;84.17;101674.84;5029559;28;20034;-87
2022/05/19 03:36:10;;;;;;;27.10;17.90;;;;;;;18.47;83.82;101672.41;5030276;28;20029;-87
2022/05/19 03:38:36;;;;;;;25.30;17.05;;;;;;;18.47;84.56;101672.41;5029975;28;20045;-88
2022/05/19 03:41:03;;;;;;;25.67;17.03;;;;;;;18.47;84.56;101666.97;5029426;28;20030;-88
2022/05/19 03:43:29;;;;;;;24.98;18.13;;;;;;;18.44;84.68;101660.22;5026879;28;20024;-88
2022/05/19 03:45:54;;;;;;;27.13;16.80;;;;;;;18.44;84.37;101673.81;5029320;28;20025;-87
2022/05/19 03:48:20;;;;;;;24.20;17.47;;;;;;;18.37;85.66;101675.25;5028674;28;20079;-88
2022/05/19 03:50:46;;;;;;;24.77;16.07;;;;;;;18.29;87.44;101687.56;5029374;28;20079;-88
2022/05/19 03:53:15;;;;;;;26.92;17.75;;;;;;;18.08;87.16;101693.22;5028639;28;20033;-88
2022/05/19 03:55:40;;;;;;;28.13;17.88;;;;;;;17.92;89.74;101670.81;5029315;28;20026;-88
2022/05/19 03:58:05;;;;;;;28.03;19.20;;;;;;;17.78;91.45;101650.91;5029878;28;20076;-88
2022/05/19 04:00:34;;;;;;;27.83;20.20;;;;;;;17.75;93.29;101674.00;5028755;28;20047;-88
2022/05/19 04:02:59;;;;;;;27.33;19.25;;;;;;;17.71;92.93;101665.59;5028808;28;20026;-88
2022/05/19 04:05:28;;;;;;;34.67;19.63;;;;;;;17.69;93.84;101662.41;5029498;28;20060;-88
2022/05/19 04:07:54;;;;;;;31.63;20.20;;;;;;;17.69;94.84;101678.66;5033269;28;20018;-88
2022/05/19 04:10:21;;;;;;;33.30;21.20;;;;;;;17.71;95.23;101691.91;5030371;28;20087;-88
2022/05/19 04:12:46;;;;;;;28.83;20.43;;;;;;;17.79;94.75;101693.19;5031273;28;20061;-88
2022/05/19 04:15:13;;;;;;;30.55;19.30;;;;;;;17.88;94.21;101686.06;5034169;28;20099;-88
2022/05/19 04:17:38;;;;;;;27.43;19.37;;;;;;;17.95;93.12;101689.25;5031674;28;20017;-88
2022/05/19 04:20:07;;;;;;;27.10;20.50;;;;;;;18.03;92.64;101681.63;5032276;28;20342;-87
2022/05/19 04:22:33;;;;;;;29.38;20.02;;;;;;;18.04;94.54;101680.53;5032820;28;20445;-88
2022/05/19 04:25:00;;;;;;;33.15;20.52;;;;;;;18.11;94.54;101678.25;5033001;28;20041;-88
2022/05/19 04:27:27;;;;;;;31.92;20.38;;;;;;;18.12;93.01;101686.13;5032867;28;20026;-89
2022/05/19 04:29:53;;;;;;;29.55;20.05;;;;;;;18.15;92.60;101684.72;5032305;28;20055;-85
2022/05/19 04:32:18;;;;;;;30.77;20.33;;;;;;;18.15;93.03;101687.44;5031691;28;20128;-86
2022/05/19 04:34:43;;;;;;;33.70;20.10;;;;;;;18.23;93.33;101691.41;5033188;28;20029;-89
2022/05/19 04:37:10;;;;;;;34.93;21.50;;;;;;;18.24;94.05;101668.63;5033275;28;20025;-93
2022/05/19 04:39:35;;;;;;;31.63;21.48;;;;;;;18.34;92.78;101668.50;5022362;28;20377;-93
2022/05/19 04:42:12;;;;;;;32.83;21.57;;;;;;;18.45;92.28;101674.59;5015451;28;20030;-92
2022/05/19 04:44:39;;;;;;;27.90;20.38;;;;;;;18.54;92.19;101662.00;5032678;28;20049;-93
2022/05/19 04:47:06;;;;;;;26.55;20.13;;;;;;;18.58;91.95;101664.94;5034223;28;20032;-87
2022/05/19 04:49:35;;;;;;;29.45;21.52;;;;;;;18.65;91.77;101689.00;5028737;28;20423;-89
2022/05/19 04:52:00;;;;;;;27.10;20.35;;;;;;;18.69;90.83;101676.47;5022731;28;20057;-91
2022/05/19 04:54:25;;;;;;;32.57;21.80;;;;;;;18.66;90.59;101675.16;5031536;28;20053;-91
2022/05/19 04:56:51;;;;;;;31.10;22.27;;;;;;;18.70;90.96;101678.09;5032719;28;20079;-91
2022/05/19 04:59:17;;;;;;;33.53;22.03;;;;;;;18.69;90.39;101668.31;5033441;28;20029;-91
2022/05/19 05:01:46;;;;;;;31.85;22.15;;;;;;;18.70;90.42;101667.22;5032842;28;20026;-89
2022/05/19 05:04:12;;;;;;;29.10;21.27;;;;;;;18.71;90.67;101663.41;5025163;28;20033;-88
2022/05/19 05:06:38;;;;;;;29.83;22.40;;;;;;;18.78;91.71;101674.72;5038211;28;20089;-90
2022/05/19 05:09:04;;;;;;;31.63;22.50;;;;;;;18.80;89.45;101674.44;5038929;28;20107;-90
2022/05/19 05:11:29;;;;;;;29.13;19.83;;;;;;;18.85;89.27;101675.16;5038776;28;20029;-88
2022/05/19 05:13:54;;;;;;;29.23;20.60;;;;;;;18.90;88.21;101677.81;5032285;28;20029;-89
2022/05/19 05:16:19;;;;;;;28.10;20.40;;;;;;;18.91;88.63;101663.13;5033025;28;20052;-86
2022/05/19 05:18:45;;;;;;;35.63;21.00;;;;;;;18.89;89.36;101659.91;5030907;28;20021;-88
2022/05/19 05:21:13;;;;;;;27.07;20.03;;;;;;;18.90;90.21;101656.09;5032417;28;20120;-87
2022/05/19 05:23:39;;;;;;;30.80;21.50;;;;;;;18.90;90.87;101656.09;5025161;28;20029;-87
2022/05/19 05:26:06;;;;;;;29.67;20.33;;;;;;;18.91;89.37;101643.28;5032303;28;20025;-88
2022/05/19 05:28:32;;;;;;;27.92;18.65;;;;;;;18.89;88.45;101637.38;5014990;28;20029;-88
2022/05/19 05:30:57;;;;;;;28.15;18.27;;;;;;;18.85;89.61;101631.72;5029503;28;20031;-88
2022/05/19 05:33:22;;;;;;;31.77;17.97;;;;;;;18.76;88.99;101622.63;5032460;28;20029;-87
2022/05/19 05:35:51;;;;;;;27.03;17.60;;;;;;;18.57;91.11;101631.56;5034867;28;20041;-87
2022/05/19 05:38:17;;;;;;;24.98;17.33;;;;;;;18.37;92.89;101621.00;5032939;28;20068;-88
2022/05/19 05:40:43;;;;;;;24.85;16.73;;;;;;;18.12;95.22;101614.78;5033863;28;20072;-89
2022/05/19 05:43:11;;;;;;;23.50;15.90;;;;;;;17.93;96.60;101601.16;5034449;28;20079;-89
2022/05/19 05:45:37;;;;;;;24.77;16.95;;;;;;;17.78;98.12;101602.13;5030254;28;20413;-87
2022/05/19 05:48:03;;;;;;;22.07;16.90;;;;;;;17.66;99.04;101592.50;5032389;28;20079;-87
2022/05/19 05:50:29;;;;;;;23.13;16.10;;;;;;;17.56;99.79;101573.63;5030014;28;20033;-87
2022/05/19 05:52:54;;;;;;;23.75;17.30;;;;;;;17.41;100.00;101580.81;5031139;28;20044;-86
2022/05/19 05:55:23;;;;;;;26.23;17.10;;;;;;;17.33;100.00;101564.38;5031025;28;20325;-90
2022/05/19 05:57:48;;;;;;;26.90;17.90;;;;;;;17.22;100.00;101567.19;5032869;28;20029;-89
2022/05/19 06:00:14;;;;;;;21.53;17.23;;;;;;;17.24;100.00;101591.28;5031337;28;20025;-88
2022/05/19 06:02:39;;;;;;;26.05;17.63;;;;;;;17.18;100.00;101576.97;5028998;28;20033;-86
2022/05/19 06:05:05;;;;;;;26.90;18.73;;;;;;;17.21;100.00;101559.34;5030787;28;20044;-87
2022/05/19 06:07:30;;;;;;;23.60;18.37;;;;;;;17.29;100.00;101545.19;5031406;28;20033;-87
2022/05/19 06:09:56;;;;;;;27.35;18.67;;;;;;;17.32;100.00;101528.38;5031863;28;20025;-87
2022/05/19 06:12:23;;;;;;;28.87;17.83;;;;;;;17.36;100.00;101544.84;5030050;28;20048;-88
2022/05/19 06:14:49;;;;;;;25.98;17.52;;;;;;;17.41;100.00;101580.03;5028244;28;20029;-87
2022/05/19 06:17:14;;;;;;;25.10;17.40;;;;;;;17.57;100.00;101596.91;5030611;28;20036;-88
2022/05/19 06:19:39;;;;;;;26.17;18.77;;;;;;;17.76;100.00;101588.06;5031407;28;20417;-87
2022/05/19 06:22:05;;;;;;;23.75;18.45;;;;;;;17.97;100.00;101594.06;5029983;28;20026;-86
2022/05/19 06:24:32;;;;;;;24.03;18.03;;;;;;;18.10;100.00;101598.00;5030612;28;20034;-87
2022/05/19 06:26:57;;;;;;;25.67;18.40;;;;;;;18.23;100.00;101601.91;5031101;28;20018;-86
2022/05/19 06:29:24;;;;;;;24.23;18.07;;;;;;;18.26;100.00;101596.69;5029986;28;20115;-87
2022/05/19 06:31:49;;;;;;;25.63;19.38;;;;;;;18.22;100.00;101584.84;5029735;28;20030;-87
2022/05/19 06:34:14;;;;;;;24.20;16.27;;;;;;;18.27;100.00;101563.06;5023806;28;20063;-88
2022/05/19 06:36:40;;;;;;;26.07;19.83;;;;;;;18.26;100.00;101566.06;5030909;28;20025;-87
2022/05/19 06:39:06;;;;;;;23.98;19.17;;;;;;;18.33;100.00;101558.38;5031813;28;20017;-88
2022/05/19 06:44:17;;;;;;;28.60;19.77;;;;;;;18.67;99.38;101560.06;5011929;28;20045;-87
2022/05/19 06:46:42;;;;;;;26.73;19.98;;;;;;;18.93;98.15;101570.50;5030545;28;20112;-87
2022/05/19 06:49:09;;;;;;;29.00;20.23;;;;;;;19.06;96.63;101556.22;5031028;28;20020;-88
2022/05/19 06:51:34;;;;;;;27.00;19.40;;;;;;;19.26;95.36;101558.84;5028183;28;20712;-88
2022/05/19 06:54:00;;;;;;;27.80;19.90;;;;;;;19.25;94.32;101539.03;5031174;28;20034;-88
2022/05/19 06:56:25;;;;;;;30.13;20.63;;;;;;;19.31;94.40;101550.63;5029952;28;20140;-87
2022/05/19 06:58:51;;;;;;;27.55;19.95;;;;;;;19.33;94.05;101562.00;5030431;28;20038;-88
2022/05/19 07:01:16;;;;;;;24.63;18.93;;;;;;;19.37;93.93;101560.28;5029219;28;20492;-88
2022/05/19 07:03:41;;;;;;;25.20;18.53;;;;;;;19.48;93.00;101569.03;5028762;28;20648;-87
2022/05/19 07:06:06;;;;;;;25.47;19.83;;;;;;;19.55;93.19;101566.75;5029727;28;20039;-87
2022/05/19 07:08:32;;;;;;;23.43;18.37;;;;;;;19.61;91.53;101562.00;5030008;28;20276;-87
2022/05/19 07:10:57;;;;;;;23.30;17.17;;;;;;;19.82;90.29;101563.22;5029404;28;20029;-88
2022/05/19 07:13:22;;;;;;;24.33;16.63;;;;;;;19.94;90.25;101557.31;5029827;28;20047;-87
2022/05/19 07:15:48;;;;;;;21.83;17.50;;;;;;;20.00;89.44;101555.28;5028319;28;20029;-88
2022/05/19 07:18:13;;;;;;;19.90;16.87;;;;;;;20.09;88.38;101544.47;5030105;28;20029;-88
2022/05/19 07:20:44;;;;;;;22.23;17.43;;;;;;;20.05;88.22;101530.69;5028460;28;20034;-89
2022/05/19 07:23:19;;;;;;;23.42;18.25;;;;;;;20.19;87.51;101551.63;5029562;28;20033;-89
2022/05/19 07:25:45;;;;;;;22.75;16.73;;;;;;;20.24;87.88;101527.81;5028971;28;20040;-89
2022/05/19 07:28:12;;;;;;;23.27;17.10;;;;;;;20.33;86.83;101525.19;5028820;28;20033;-89
2022/05/19 07:30:38;;;;;;;19.63;15.93;;;;;;;20.46;86.26;101525.44;5015076;28;20385;-87
2022/05/19 07:33:03;;;;;;;21.83;15.90;;;;;;;20.63;86.00;101520.13;5017416;28;20029;-87
2022/05/19 07:35:29;;;;;;;18.23;14.32;;;;;;;20.79;84.13;101519.78;5026419;28;20047;-87
2022/05/19 07:37:54;;;;;;;18.53;15.87;;;;;;;20.89;84.00;101541.31;5030176;28;20660;-88
2022/05/19 07:40:20;;;;;;;23.90;17.17;;;;;;;20.94;84.33;101552.09;5027261;28;20075;-87
2022/05/19 07:42:45;;;;;;;21.70;16.77;;;;;;;20.89;83.56;101563.09;5023092;28;20021;-87
2022/05/19 07:45:11;;;;;;;20.93;16.67;;;;;;;20.86;82.78;101569.97;5028961;28;20037;-85
2022/05/19 07:47:37;;;;;;;19.05;16.15;;;;;;;20.89;83.95;101568.53;5030120;28;20037;-87
2022/05/19 07:50:05;;;;;;;20.88;16.70;;;;;;;21.05;81.73;101577.16;5027682;28;20037;-87
2022/05/19 07:52:31;;;;;;;24.63;16.53;;;;;;;21.24;81.02;101566.03;5026010;28;20056;-88
2022/05/19 07:54:56;;;;;;;22.20;17.27;;;;;;;21.45;80.40;101565.47;5014971;28;20327;-87
2022/05/19 07:57:22;;;;;;;21.83;17.13;;;;;;;21.55;80.05;101567.91;5029923;28;20380;-88
2022/05/19 07:59:48;;;;;;;21.13;16.63;;;;;;;21.63;78.74;101550.81;5029145;28;20036;-87
2022/05/19 08:02:13;;;;;;;23.33;16.38;;;;;;;21.79;78.68;101544.94;5028912;28;20021;-90
2022/05/19 08:04:40;;;;;;;22.93;15.30;;;;;;;22.09;77.85;101545.16;5025262;28;20029;-91
2022/05/19 08:07:05;;;;;;;23.85;16.13;;;;;;;22.41;76.32;101550.47;5027101;28;20108;-91
2022/05/19 08:17:57;;;;;;;19.20;14.07;;;;;;;23.00;71.28;101555.44;5029945;28;20123;-89
2022/05/19 08:20:22;;;;;;;18.90;13.53;;;;;;;23.19;70.24;101552.31;5030248;28;20432;-91
2022/05/19 08:22:48;;;;;;;18.23;13.03;;;;;;;23.31;68.45;101568.06;5031153;28;20029;-92
2022/05/19 08:25:13;;;;;;;20.02;13.05;;;;;;;23.27;68.45;101551.53;5029964;28;20488;-94
2022/05/19 08:35:53;;;;;;;13.30;11.20;;;;;;;23.85;64.97;101561.22;5542335;22;20111;-91
2022/05/19 08:38:39;;;;;;;17.23;10.10;;;;;;;24.03;64.49;101550.97;5048824;28;20114;-92
2022/05/19 08:41:38;;;;;;;14.88;10.65;;;;;;;24.20;64.20;101525.41;4977415;28;20438;-92
2022/05/19 08:44:38;;;;;;;14.70;10.63;;;;;;;24.51;62.84;101548.84;4974187;28;20061;-90
2022/05/19 08:47:07;;;;;;;12.73;9.60;;;;;;;24.62;59.56;101547.28;4986220;28;20371;-90
2022/05/19 08:50:10;;;;;;;14.07;9.77;;;;;;;24.87;61.26;101546.59;4992019;28;20929;-90
2022/05/19 08:52:46;;;;;;;14.25;8.52;;;;;;;25.02;58.77;101532.25;5027372;28;20056;-87
2022/05/19 08:55:14;;;;;;;12.77;8.15;;;;;;;25.09;55.36;101526.19;5030605;28;20065;-92
2022/05/19 08:58:07;;;;;;;18.15;9.48;;;;;;;25.27;57.42;101531.47;5028402;28;20022;-89
2022/05/19 09:00:37;;;;;;;13.38;7.93;;;;;;;25.32;57.22;101536.72;5023488;28;20378;-89
2022/05/19 09:05:47;;;;;;;9.52;7.47;;;;;;;25.79;55.59;101525.28;5041075;22;20052;-92
2022/05/19 09:09:12;;;;;;;11.15;8.02;;;;;;;26.03;55.31;101520.09;5025391;28;20022;-95
2022/05/19 09:12:09;;;;;;;13.07;8.20;;;;;;;25.83;55.11;101503.47;5003838;28;20034;-91
2022/05/19 09:14:41;;;;;;;13.93;8.73;;;;;;;25.89;54.19;101510.28;5001078;28;20374;-90
2022/05/19 09:17:47;;;;;;;11.45;8.15;;;;;;;26.27;53.69;101519.25;5013740;28;20177;-90
2022/05/19 09:24:32;;;;;;;10.20;6.88;;;;;;;27.21;52.60;101521.72;5027967;28;20040;-90
2022/05/19 09:27:22;;;;;;;11.05;7.65;;;;;;;27.68;51.18;101522.03;5012844;28;20046;-93
2022/05/19 09:29:51;;;;;;;9.00;6.85;;;;;;;27.89;48.22;101513.44;5036238;28;20393;-92
2022/05/19 09:32:37;;;;;;;10.02;7.15;;;;;;;27.91;48.45;101509.19;5036969;28;20047;-91
2022/05/19 09:35:17;;;;;;;12.68;7.22;;;;;;;28.18;48.29;101514.09;5040045;28;20089;-90
2022/05/19 09:37:45;;;;;;;12.82;6.47;;;;;;;28.39;46.82;101505.44;5041205;28;20041;-90
2022/05/19 09:40:11;;;;;;;9.63;5.90;;;;;;;28.50;46.70;101509.19;5046081;28;20001;-89
2022/05/19 09:42:50;;;;;;;12.50;6.00;;;;;;;28.65;47.43;101503.94;5053057;28;20371;-91
2022/05/19 09:45:20;;;;;;;11.02;6.47;;;;;;;28.62;46.47;101507.44;5049329;28;20030;-91
2022/05/19 09:47:50;;;;;;;11.77;5.97;;;;;;;28.67;46.02;101499.66;5055545;28;20021;-91
2022/05/19 09:50:26;;;;;;;11.40;6.20;;;;;;;28.66;46.55;101506.34;5033671;28;20269;-90
2022/05/19 09:53:00;;;;;;;8.00;5.20;;;;;;;28.66;46.29;101511.06;5033051;28;20036;-91
2022/05/19 09:55:27;;;;;;;12.50;5.97;;;;;;;28.56;46.15;101510.47;5040449;28;20573;-92
2022/05/19 09:57:57;;;;;;;8.73;5.53;;;;;;;28.27;46.00;101487.09;5049719;28;20033;-92
2022/05/19 10:00:43;;;;;;;7.22;5.30;;;;;;;28.42;47.37;101497.22;5037274;28;20052;-91
2022/05/19 10:03:17;;;;;;;7.65;4.72;;;;;;;28.60;46.31;101493.22;5042822;28;20046;-91
2022/05/19 10:05:42;;;;;;;13.63;5.30;;;;;;;28.67;45.79;101488.63;5049842;28;20022;-91
2022/05/19 10:08:15;;;;;;;8.67;4.77;;;;;;;28.53;45.76;101478.13;5048683;28;20448;-92
2022/05/19 10:10:56;;;;;;;9.18;4.97;;;;;;;28.59;45.87;101484.13;5050849;28;20026;-92
2022/05/19 10:13:32;;;;;;;9.98;4.68;;;;;;;28.60;45.70;101462.91;5048705;28;20381;-92
2022/05/19 10:16:23;;;;;;;6.70;4.33;;;;;;;28.83;45.52;101463.72;5037513;28;20037;-91
2022/05/19 10:19:13;;;;;;;8.77;5.00;;;;;;;28.99;45.81;101444.28;5036524;28;20283;-91
2022/05/19 10:21:51;;;;;;;9.18;4.10;;;;;;;29.01;44.74;101433.66;5034835;28;20038;-91
2022/05/19 10:24:42;;;;;;;9.20;4.72;;;;;;;29.19;43.76;101438.66;5033449;28;20477;-91
2022/05/19 10:31:04;;;;;;;10.93;3.92;;;;;;;29.18;42.72;101445.34;5031875;28;20072;-87
2022/05/19 10:33:42;;;;;;;10.85;4.63;;;;;;;29.07;42.80;101447.94;5026339;28;20041;-89
2022/05/19 10:36:33;;;;;;;8.88;4.22;;;;;;;29.39;43.06;101442.13;5024511;28;20118;-87
2022/05/19 10:39:23;;;;;;;8.00;4.45;;;;;;;29.58;40.33;101438.44;5033135;28;20037;-88
2022/05/19 10:41:57;;;;;;;9.50;3.80;;;;;;;30.04;39.91;101437.44;5025695;28;20033;-84
2022/05/19 10:44:53;;;;;;;9.83;4.03;;;;;;;30.08;40.85;101445.75;5026817;28;20029;-84
2022/05/19 10:47:27;;;;;;;11.23;4.43;;;;;;;30.41;39.50;101443.31;5028240;28;20296;-85
2022/05/19 10:50:27;;;;;;;7.43;3.80;;;;;;;30.57;39.14;101446.66;5029981;28;20037;-85
2022/05/19 10:53:30;;;;;;;9.02;3.72;;;;;;;30.07;39.66;101444.16;5023232;28;20534;-85
2022/05/19 10:56:08;;;;;;;11.73;3.80;;;;;;;29.98;39.97;101433.41;5016754;28;20045;-86
2022/05/19 10:58:43;;;;;;;8.93;3.85;;;;;;;30.11;38.86;101433.94;5028822;28;20099;-86
2022/05/19 11:01:34;;;;;;;8.48;4.07;;;;;;;30.09;38.60;101435.50;5029709;28;20033;-86
2022/05/19 11:04:08;;;;;;;6.25;4.07;;;;;;;30.43;39.18;101429.91;5029906;28;20041;-86
2022/05/19 11:07:08;;;;;;;10.23;3.92;;;;;;;30.81;39.67;101422.38;5029440;28;20033;-85
2022/05/19 11:09:52;;;;;;;8.02;3.55;;;;;;;30.93;38.74;101430.34;5028256;28;20277;-86
2022/05/19 11:12:20;;;;;;;7.67;3.70;;;;;;;30.95;38.42;101436.28;5029200;28;20103;-85
2022/05/19 11:15:01;;;;;;;6.07;3.90;;;;;;;30.62;37.95;101418.66;5023600;28;20311;-86
2022/05/19 11:17:56;;;;;;;8.27;3.47;;;;;;;29.87;38.63;101422.19;5027308;28;20489;-86
2022/05/19 11:20:26;;;;;;;11.18;4.45;;;;;;;29.08;39.88;101419.19;5018445;28;20120;-87
2022/05/19 11:23:00;;;;;;;8.57;3.92;;;;;;;28.54;41.17;101426.59;5029052;28;20548;-86
2022/05/19 11:28:22;;;;;;;6.63;3.90;;;;;;;28.00;43.42;101436.56;5029272;28;20056;-86
2022/05/19 11:30:54;;;;;;;7.13;4.30;;;;;;;27.76;44.49;101438.44;5024504;28;20103;-86
2022/05/19 11:33:26;;;;;;;9.05;3.72;;;;;;;27.61;44.93;101451.91;5028646;28;20021;-87
2022/05/19 11:35:59;;;;;;;4.38;3.50;;;;;;;27.51;45.50;101461.53;5028633;28;20053;-86
2022/05/19 11:38:33;;;;;;;8.57;3.70;;;;;;;27.27;46.18;101457.03;5028548;28;20026;-88
2022/05/19 11:41:20;;;;;;;6.53;3.57;;;;;;;27.19;46.63;101466.28;5028280;28;20799;-88
2022/05/19 11:44:00;;;;;;;7.25;3.83;;;;;;;27.04;51.12;101501.66;5036662;28;20175;-89
2022/05/19 11:46:32;;;;;;;87.47;5.20;;;;;;;26.23;51.03;101576.03;5027470;28;20026;-89
2022/05/19 11:55:13;;;;;;;30.48;2.90;;;;;;;18.93;93.83;101689.97;5025766;28;20052;-87
2022/05/19 11:57:59;;;;;;;36.40;2.83;;;;;;;18.19;99.40;101664.06;5022430;28;20061;-86
2022/05/19 12:00:30;;;;;;;9.90;1.50;;;;;;;17.84;100.00;101657.91;5028459;28;20187;-86
2022/05/19 12:03:02;;;;;;;11.35;1.67;;;;;;;17.63;100.00;101655.41;5027980;28;20611;-86
2022/05/19 12:05:40;;;;;;;5.50;1.60;;;;;;;17.56;100.00;101658.44;5012998;28;20034;-87
2022/05/19 12:08:30;;;;;;;6.17;1.10;;;;;;;17.41;100.00;101659.38;5014379;28;20306;-86
2022/05/19 12:11:19;;;;;;;8.23;1.33;;;;;;;17.09;100.00;101671.53;5026282;28;20033;-86